sensor_id;sensor_type;location;lat;lon;timestamp;P1;durP1;ratioP1;P2;durP2;ratioP2
63320;SDS011;49449;48.800;9.534;2023-02-11T00:00:35;28.02;;;18.15;;
63320;SDS011;49449;48.800;9.534;2023-02-11T00:03:05;27.73;;;18.67;;
63320;SDS011;49449;48.800;9.534;2023-02-11T00:05:33;29.50;;;18.48;;
63320;SDS011;49449;48.800;9.534;2023-02-11T00:08:01;26.30;;;16.90;;
63320;SDS011;49449;48.800;9.534;2023-02-11T00:10:29;28.05;;;17.65;;
63320;SDS011;49449;48.800;9.534;2023-02-11T00:12:56;28.55;;;18.05;;
63320;SDS011;49449;48.800;9.534;2023-02-11T00:15:24;29.33;;;18.73;;
63320;SDS011;49449;48.800;9.534;2023-02-11T00:17:53;29.90;;;18.83;;
63320;SDS011;49449;48.800;9.534;2023-02-11T00:20:21;33.38;;;22.25;;
63320;SDS011;49449;48.800;9.534;2023-02-11T00:22:49;28.30;;;16.73;;
63320;SDS011;49449;48.800;9.534;2023-02-11T00:25:16;30.17;;;18.30;;
63320;SDS011;49449;48.800;9.534;2023-02-11T00:27:44;30.25;;;18.52;;
63320;SDS011;49449;48.800;9.534;2023-02-11T00:30:12;31.33;;;17.63;;
63320;SDS011;49449;48.800;9.534;2023-02-11T00:32:40;27.80;;;16.27;;
63320;SDS011;49449;48.800;9.534;2023-02-11T00:35:10;31.67;;;17.63;;
63320;SDS011;49449;48.800;9.534;2023-02-11T00:37:37;26.90;;;16.88;;
63320;SDS011;49449;48.800;9.534;2023-02-11T00:40:05;29.60;;;17.52;;
63320;SDS011;49449;48.800;9.534;2023-02-11T00:42:34;26.95;;;17.25;;
63320;SDS011;49449;48.800;9.534;2023-02-11T00:45:02;28.65;;;17.67;;
63320;SDS011;49449;48.800;9.534;2023-02-11T00:47:30;26.60;;;17.40;;
63320;SDS011;49449;48.800;9.534;2023-02-11T00:49:58;21.40;;;15.45;;
63320;SDS011;49449;48.800;9.534;2023-02-11T00:52:27;23.85;;;16.23;;
63320;SDS011;49449;48.800;9.534;2023-02-11T00:54:55;25.67;;;15.77;;
63320;SDS011;49449;48.800;9.534;2023-02-11T00:57:23;23.90;;;15.50;;
63320;SDS011;49449;48.800;9.534;2023-02-11T00:59:51;23.67;;;16.05;;
63320;SDS011;49449;48.800;9.534;2023-02-11T01:02:18;25.63;;;17.70;;
63320;SDS011;49449;48.800;9.534;2023-02-11T01:04:46;25.00;;;16.02;;
63320;SDS011;49449;48.800;9.534;2023-02-11T01:07:14;24.90;;;17.58;;
63320;SDS011;49449;48.800;9.534;2023-02-11T01:09:43;23.00;;;16.80;;
63320;SDS011;49449;48.800;9.534;2023-02-11T01:12:11;24.80;;;16.48;;
63320;SDS011;49449;48.800;9.534;2023-02-11T01:14:39;24.88;;;16.55;;
63320;SDS011;49449;48.800;9.534;2023-02-11T01:17:07;20.95;;;13.75;;
63320;SDS011;49449;48.800;9.534;2023-02-11T01:19:35;20.60;;;14.75;;
63320;SDS011;49449;48.800;9.534;2023-02-11T01:22:03;21.50;;;14.80;;
63320;SDS011;49449;48.800;9.534;2023-02-11T01:24:31;25.02;;;16.17;;
63320;SDS011;49449;48.800;9.534;2023-02-11T01:27:01;21.08;;;15.25;;
63320;SDS011;49449;48.800;9.534;2023-02-11T01:29:28;24.70;;;15.25;;
63320;SDS011;49449;48.800;9.534;2023-02-11T01:31:56;19.85;;;14.13;;
63320;SDS011;49449;48.800;9.534;2023-02-11T01:34:24;22.48;;;14.90;;
63320;SDS011;49449;48.800;9.534;2023-02-11T01:36:55;23.20;;;15.18;;
63320;SDS011;49449;48.800;9.534;2023-02-11T01:39:23;22.48;;;15.38;;
63320;SDS011;49449;48.800;9.534;2023-02-11T01:41:51;21.80;;;14.45;;
63320;SDS011;49449;48.800;9.534;2023-02-11T01:44:22;22.25;;;14.75;;
63320;SDS011;49449;48.800;9.534;2023-02-11T01:49:20;24.50;;;15.27;;
63320;SDS011;49449;48.800;9.534;2023-02-11T01:51:52;26.10;;;16.10;;
63320;SDS011;49449;48.800;9.534;2023-02-11T01:54:25;23.33;;;14.15;;
63320;SDS011;49449;48.800;9.534;2023-02-11T01:57:14;28.52;;;18.10;;
63320;SDS011;49449;48.800;9.534;2023-02-11T01:59:51;27.00;;;18.35;;
63320;SDS011;49449;48.800;9.534;2023-02-11T02:02:27;26.98;;;19.35;;
63320;SDS011;49449;48.800;9.534;2023-02-11T02:04:59;27.75;;;18.52;;
63320;SDS011;49449;48.800;9.534;2023-02-11T02:07:32;25.63;;;17.50;;
63320;SDS011;49449;48.800;9.534;2023-02-11T02:10:08;25.67;;;16.85;;
63320;SDS011;49449;48.800;9.534;2023-02-11T02:12:40;25.45;;;16.58;;
63320;SDS011;49449;48.800;9.534;2023-02-11T02:18:00;24.95;;;16.25;;
63320;SDS011;49449;48.800;9.534;2023-02-11T02:20:55;23.75;;;15.82;;
63320;SDS011;49449;48.800;9.534;2023-02-11T02:24:02;24.33;;;16.13;;
63320;SDS011;49449;48.800;9.534;2023-02-11T02:26:53;24.80;;;15.50;;
63320;SDS011;49449;48.800;9.534;2023-02-11T02:29:40;22.88;;;15.23;;
63320;SDS011;49449;48.800;9.534;2023-02-11T02:35:50;26.13;;;16.33;;
63320;SDS011;49449;48.800;9.534;2023-02-11T02:38:26;26.30;;;16.58;;
63320;SDS011;49449;48.800;9.534;2023-02-11T02:40:58;26.25;;;16.33;;
63320;SDS011;49449;48.800;9.534;2023-02-11T02:43:30;27.80;;;18.83;;
63320;SDS011;49449;48.800;9.534;2023-02-11T02:46:10;25.15;;;16.60;;
63320;SDS011;49449;48.800;9.534;2023-02-11T02:48:40;25.27;;;16.88;;
63320;SDS011;49449;48.800;9.534;2023-02-11T02:51:14;23.33;;;15.25;;
63320;SDS011;49449;48.800;9.534;2023-02-11T02:54:25;22.70;;;15.20;;
63320;SDS011;49449;48.800;9.534;2023-02-11T02:57:13;23.08;;;14.80;;
63320;SDS011;49449;48.800;9.534;2023-02-11T02:59:53;21.67;;;15.30;;
63320;SDS011;49449;48.800;9.534;2023-02-11T03:02:32;21.52;;;14.98;;
63320;SDS011;49449;48.800;9.534;2023-02-11T03:05:07;24.55;;;15.35;;
63320;SDS011;49449;48.800;9.534;2023-02-11T03:07:42;19.63;;;14.10;;
63320;SDS011;49449;48.800;9.534;2023-02-11T03:10:18;21.45;;;14.52;;
63320;SDS011;49449;48.800;9.534;2023-02-11T03:12:50;24.23;;;14.68;;
63320;SDS011;49449;48.800;9.534;2023-02-11T03:15:21;21.60;;;15.80;;
63320;SDS011;49449;48.800;9.534;2023-02-11T03:17:53;22.05;;;15.63;;
63320;SDS011;49449;48.800;9.534;2023-02-11T03:20:26;20.83;;;16.45;;
63320;SDS011;49449;48.800;9.534;2023-02-11T03:22:57;22.17;;;15.02;;
63320;SDS011;49449;48.800;9.534;2023-02-11T03:25:36;21.48;;;14.10;;
63320;SDS011;49449;48.800;9.534;2023-02-11T03:28:10;21.25;;;14.23;;
63320;SDS011;49449;48.800;9.534;2023-02-11T03:30:43;22.42;;;15.25;;
63320;SDS011;49449;48.800;9.534;2023-02-11T03:33:17;20.27;;;14.23;;
63320;SDS011;49449;48.800;9.534;2023-02-11T03:35:51;20.77;;;13.60;;
63320;SDS011;49449;48.800;9.534;2023-02-11T03:38:24;22.65;;;13.75;;
63320;SDS011;49449;48.800;9.534;2023-02-11T03:40:55;21.52;;;14.40;;
63320;SDS011;49449;48.800;9.534;2023-02-11T03:43:26;21.35;;;14.15;;
63320;SDS011;49449;48.800;9.534;2023-02-11T03:45:59;22.42;;;15.00;;
63320;SDS011;49449;48.800;9.534;2023-02-11T03:48:29;20.33;;;13.82;;
63320;SDS011;49449;48.800;9.534;2023-02-11T03:51:01;23.70;;;14.18;;
63320;SDS011;49449;48.800;9.534;2023-02-11T03:53:33;24.00;;;15.18;;
63320;SDS011;49449;48.800;9.534;2023-02-11T03:56:04;22.90;;;14.07;;
63320;SDS011;49449;48.800;9.534;2023-02-11T03:58:34;21.40;;;13.93;;
63320;SDS011;49449;48.800;9.534;2023-02-11T04:01:02;22.73;;;15.05;;
63320;SDS011;49449;48.800;9.534;2023-02-11T04:03:34;20.10;;;14.20;;
63320;SDS011;49449;48.800;9.534;2023-02-11T04:06:03;19.83;;;13.18;;
63320;SDS011;49449;48.800;9.534;2023-02-11T04:08:31;22.55;;;15.35;;
63320;SDS011;49449;48.800;9.534;2023-02-11T04:10:59;20.77;;;14.30;;
63320;SDS011;49449;48.800;9.534;2023-02-11T04:15:55;22.63;;;15.02;;
63320;SDS011;49449;48.800;9.534;2023-02-11T04:18:23;22.30;;;15.55;;
63320;SDS011;49449;48.800;9.534;2023-02-11T04:20:50;22.17;;;14.35;;
63320;SDS011;49449;48.800;9.534;2023-02-11T04:23:20;22.42;;;15.65;;
63320;SDS011;49449;48.800;9.534;2023-02-11T04:25:49;21.77;;;15.07;;
63320;SDS011;49449;48.800;9.534;2023-02-11T04:28:17;22.13;;;13.90;;
63320;SDS011;49449;48.800;9.534;2023-02-11T04:30:45;23.95;;;14.73;;
63320;SDS011;49449;48.800;9.534;2023-02-11T04:33:15;20.23;;;14.32;;
63320;SDS011;49449;48.800;9.534;2023-02-11T04:35:43;21.23;;;14.00;;
63320;SDS011;49449;48.800;9.534;2023-02-11T04:38:11;19.75;;;13.70;;
63320;SDS011;49449;48.800;9.534;2023-02-11T04:40:40;23.20;;;14.77;;
63320;SDS011;49449;48.800;9.534;2023-02-11T04:43:08;22.50;;;15.25;;
63320;SDS011;49449;48.800;9.534;2023-02-11T04:45:36;23.58;;;16.45;;
63320;SDS011;49449;48.800;9.534;2023-02-11T04:48:03;22.20;;;15.32;;
63320;SDS011;49449;48.800;9.534;2023-02-11T04:50:31;23.33;;;15.52;;
63320;SDS011;49449;48.800;9.534;2023-02-11T04:52:59;21.55;;;16.20;;
63320;SDS011;49449;48.800;9.534;2023-02-11T04:55:27;20.80;;;13.50;;
63320;SDS011;49449;48.800;9.534;2023-02-11T04:57:56;21.92;;;14.40;;
63320;SDS011;49449;48.800;9.534;2023-02-11T05:00:24;22.38;;;15.32;;
63320;SDS011;49449;48.800;9.534;2023-02-11T05:02:54;20.90;;;13.77;;
63320;SDS011;49449;48.800;9.534;2023-02-11T05:05:21;24.20;;;14.98;;
63320;SDS011;49449;48.800;9.534;2023-02-11T05:07:49;20.42;;;14.50;;
63320;SDS011;49449;48.800;9.534;2023-02-11T05:10:17;22.85;;;15.95;;
63320;SDS011;49449;48.800;9.534;2023-02-11T05:12:46;19.60;;;13.93;;
63320;SDS011;49449;48.800;9.534;2023-02-11T05:15:15;24.25;;;15.40;;
63320;SDS011;49449;48.800;9.534;2023-02-11T05:17:43;24.45;;;16.63;;
63320;SDS011;49449;48.800;9.534;2023-02-11T05:20:11;19.02;;;13.27;;
63320;SDS011;49449;48.800;9.534;2023-02-11T05:22:39;23.33;;;14.88;;
63320;SDS011;49449;48.800;9.534;2023-02-11T05:25:07;21.48;;;15.07;;
63320;SDS011;49449;48.800;9.534;2023-02-11T05:27:35;20.52;;;13.88;;
63320;SDS011;49449;48.800;9.534;2023-02-11T05:30:03;24.63;;;15.65;;
63320;SDS011;49449;48.800;9.534;2023-02-11T05:32:33;22.55;;;14.80;;
63320;SDS011;49449;48.800;9.534;2023-02-11T05:35:01;20.38;;;14.63;;
63320;SDS011;49449;48.800;9.534;2023-02-11T05:37:29;24.98;;;16.33;;
63320;SDS011;49449;48.800;9.534;2023-02-11T05:39:57;21.02;;;14.82;;
63320;SDS011;49449;48.800;9.534;2023-02-11T05:42:25;21.60;;;14.70;;
63320;SDS011;49449;48.800;9.534;2023-02-11T05:44:52;24.90;;;14.45;;
63320;SDS011;49449;48.800;9.534;2023-02-11T05:47:20;22.48;;;15.68;;
63320;SDS011;49449;48.800;9.534;2023-02-11T05:49:49;21.25;;;14.82;;
63320;SDS011;49449;48.800;9.534;2023-02-11T05:52:18;22.08;;;15.23;;
63320;SDS011;49449;48.800;9.534;2023-02-11T05:54:46;21.95;;;14.30;;
63320;SDS011;49449;48.800;9.534;2023-02-11T05:57:14;21.92;;;15.23;;
63320;SDS011;49449;48.800;9.534;2023-02-11T05:59:42;24.88;;;16.58;;
63320;SDS011;49449;48.800;9.534;2023-02-11T06:02:10;24.58;;;16.70;;
63320;SDS011;49449;48.800;9.534;2023-02-11T06:04:38;22.40;;;15.15;;
63320;SDS011;49449;48.800;9.534;2023-02-11T06:07:08;23.10;;;16.30;;
63320;SDS011;49449;48.800;9.534;2023-02-11T06:09:35;24.02;;;16.02;;
63320;SDS011;49449;48.800;9.534;2023-02-11T06:12:03;24.75;;;16.42;;
63320;SDS011;49449;48.800;9.534;2023-02-11T06:14:31;24.10;;;15.32;;
63320;SDS011;49449;48.800;9.534;2023-02-11T06:16:59;23.23;;;16.95;;
63320;SDS011;49449;48.800;9.534;2023-02-11T06:19:27;24.75;;;16.13;;
63320;SDS011;49449;48.800;9.534;2023-02-11T06:21:56;23.80;;;16.17;;
63320;SDS011;49449;48.800;9.534;2023-02-11T06:24:25;21.10;;;14.02;;
63320;SDS011;49449;48.800;9.534;2023-02-11T06:27:15;21.92;;;15.40;;
63320;SDS011;49449;48.800;9.534;2023-02-11T06:29:44;24.80;;;15.43;;
63320;SDS011;49449;48.800;9.534;2023-02-11T06:32:12;26.73;;;17.73;;
63320;SDS011;49449;48.800;9.534;2023-02-11T06:35:00;27.10;;;18.35;;
63320;SDS011;49449;48.800;9.534;2023-02-11T06:37:28;26.73;;;18.52;;
63320;SDS011;49449;48.800;9.534;2023-02-11T06:39:57;23.48;;;17.48;;
63320;SDS011;49449;48.800;9.534;2023-02-11T06:42:24;22.83;;;15.20;;
63320;SDS011;49449;48.800;9.534;2023-02-11T06:44:52;23.60;;;16.17;;
63320;SDS011;49449;48.800;9.534;2023-02-11T06:47:20;21.38;;;15.88;;
63320;SDS011;49449;48.800;9.534;2023-02-11T06:49:48;21.80;;;15.88;;
63320;SDS011;49449;48.800;9.534;2023-02-11T06:52:15;24.15;;;16.27;;
63320;SDS011;49449;48.800;9.534;2023-02-11T06:54:43;24.92;;;16.27;;
63320;SDS011;49449;48.800;9.534;2023-02-11T06:57:12;22.10;;;14.70;;
63320;SDS011;49449;48.800;9.534;2023-02-11T06:59:40;24.10;;;16.83;;
63320;SDS011;49449;48.800;9.534;2023-02-11T07:02:08;24.38;;;15.88;;
63320;SDS011;49449;48.800;9.534;2023-02-11T07:04:36;19.88;;;14.55;;
63320;SDS011;49449;48.800;9.534;2023-02-11T07:07:04;23.90;;;17.02;;
63320;SDS011;49449;48.800;9.534;2023-02-11T07:09:32;21.77;;;15.52;;
63320;SDS011;49449;48.800;9.534;2023-02-11T07:11:59;24.42;;;15.38;;
63320;SDS011;49449;48.800;9.534;2023-02-11T07:14:28;24.65;;;16.73;;
63320;SDS011;49449;48.800;9.534;2023-02-11T07:16:56;23.55;;;16.13;;
63320;SDS011;49449;48.800;9.534;2023-02-11T07:19:24;26.13;;;18.85;;
63320;SDS011;49449;48.800;9.534;2023-02-11T07:21:52;26.63;;;18.70;;
63320;SDS011;49449;48.800;9.534;2023-02-11T07:24:20;23.05;;;17.00;;
63320;SDS011;49449;48.800;9.534;2023-02-11T07:26:48;24.25;;;16.88;;
63320;SDS011;49449;48.800;9.534;2023-02-11T07:29:16;23.77;;;16.83;;
63320;SDS011;49449;48.800;9.534;2023-02-11T07:31:45;24.40;;;16.55;;
63320;SDS011;49449;48.800;9.534;2023-02-11T07:34:13;23.73;;;16.48;;
63320;SDS011;49449;48.800;9.534;2023-02-11T07:36:40;25.00;;;18.23;;
63320;SDS011;49449;48.800;9.534;2023-02-11T07:39:10;24.30;;;16.45;;
63320;SDS011;49449;48.800;9.534;2023-02-11T07:41:40;29.58;;;18.67;;
63320;SDS011;49449;48.800;9.534;2023-02-11T07:44:08;27.40;;;18.70;;
63320;SDS011;49449;48.800;9.534;2023-02-11T07:46:36;31.73;;;21.30;;
63320;SDS011;49449;48.800;9.534;2023-02-11T07:49:09;26.73;;;18.63;;
63320;SDS011;49449;48.800;9.534;2023-02-11T07:51:37;25.05;;;16.65;;
63320;SDS011;49449;48.800;9.534;2023-02-11T07:54:05;27.35;;;19.08;;
63320;SDS011;49449;48.800;9.534;2023-02-11T07:56:33;23.40;;;15.55;;
63320;SDS011;49449;48.800;9.534;2023-02-11T07:59:01;25.70;;;17.65;;
63320;SDS011;49449;48.800;9.534;2023-02-11T08:01:29;23.23;;;16.17;;
63320;SDS011;49449;48.800;9.534;2023-02-11T08:03:58;25.17;;;17.00;;
63320;SDS011;49449;48.800;9.534;2023-02-11T08:06:29;26.30;;;17.67;;
63320;SDS011;49449;48.800;9.534;2023-02-11T08:09:02;29.42;;;18.83;;
63320;SDS011;49449;48.800;9.534;2023-02-11T08:11:31;23.25;;;17.10;;
63320;SDS011;49449;48.800;9.534;2023-02-11T08:13:59;27.17;;;18.02;;
63320;SDS011;49449;48.800;9.534;2023-02-11T08:16:27;25.17;;;17.48;;
63320;SDS011;49449;48.800;9.534;2023-02-11T08:18:58;27.33;;;18.73;;
63320;SDS011;49449;48.800;9.534;2023-02-11T08:21:31;26.23;;;17.95;;
63320;SDS011;49449;48.800;9.534;2023-02-11T08:23:59;27.77;;;18.80;;
63320;SDS011;49449;48.800;9.534;2023-02-11T08:26:28;25.92;;;19.23;;
63320;SDS011;49449;48.800;9.534;2023-02-11T08:29:00;25.65;;;16.92;;
63320;SDS011;49449;48.800;9.534;2023-02-11T08:31:31;23.05;;;16.75;;
63320;SDS011;49449;48.800;9.534;2023-02-11T08:34:00;26.00;;;18.05;;
63320;SDS011;49449;48.800;9.534;2023-02-11T08:36:29;26.38;;;17.35;;
63320;SDS011;49449;48.800;9.534;2023-02-11T08:39:00;27.73;;;19.35;;
63320;SDS011;49449;48.800;9.534;2023-02-11T08:41:43;28.05;;;19.75;;
63320;SDS011;49449;48.800;9.534;2023-02-11T08:44:11;25.33;;;18.20;;
63320;SDS011;49449;48.800;9.534;2023-02-11T08:46:39;31.77;;;23.23;;
63320;SDS011;49449;48.800;9.534;2023-02-11T08:49:07;32.40;;;23.52;;
63320;SDS011;49449;48.800;9.534;2023-02-11T08:51:35;29.42;;;20.23;;
63320;SDS011;49449;48.800;9.534;2023-02-11T08:54:04;29.65;;;21.80;;
63320;SDS011;49449;48.800;9.534;2023-02-11T08:56:35;29.42;;;21.05;;
63320;SDS011;49449;48.800;9.534;2023-02-11T08:59:03;30.98;;;22.90;;
63320;SDS011;49449;48.800;9.534;2023-02-11T09:01:31;26.98;;;19.75;;
63320;SDS011;49449;48.800;9.534;2023-02-11T09:03:59;27.75;;;19.45;;
63320;SDS011;49449;48.800;9.534;2023-02-11T09:06:27;26.38;;;20.05;;
63320;SDS011;49449;48.800;9.534;2023-02-11T09:08:56;25.38;;;18.55;;
63320;SDS011;49449;48.800;9.534;2023-02-11T09:11:26;25.42;;;19.52;;
63320;SDS011;49449;48.800;9.534;2023-02-11T09:13:55;29.80;;;20.15;;
63320;SDS011;49449;48.800;9.534;2023-02-11T09:16:24;26.63;;;19.08;;
63320;SDS011;49449;48.800;9.534;2023-02-11T09:18:55;26.05;;;20.02;;
63320;SDS011;49449;48.800;9.534;2023-02-11T09:21:23;26.67;;;19.38;;
63320;SDS011;49449;48.800;9.534;2023-02-11T09:23:52;32.65;;;22.83;;
63320;SDS011;49449;48.800;9.534;2023-02-11T09:26:20;27.98;;;20.38;;
63320;SDS011;49449;48.800;9.534;2023-02-11T09:28:51;31.63;;;23.58;;
63320;SDS011;49449;48.800;9.534;2023-02-11T09:31:19;24.40;;;18.10;;
63320;SDS011;49449;48.800;9.534;2023-02-11T09:33:49;24.40;;;16.95;;
63320;SDS011;49449;48.800;9.534;2023-02-11T09:36:19;24.05;;;18.33;;
63320;SDS011;49449;48.800;9.534;2023-02-11T09:38:50;23.33;;;17.25;;
63320;SDS011;49449;48.800;9.534;2023-02-11T09:41:24;22.80;;;18.48;;
63320;SDS011;49449;48.800;9.534;2023-02-11T09:44:03;23.15;;;17.60;;
63320;SDS011;49449;48.800;9.534;2023-02-11T09:46:34;23.30;;;17.10;;
63320;SDS011;49449;48.800;9.534;2023-02-11T09:49:06;24.70;;;17.77;;
63320;SDS011;49449;48.800;9.534;2023-02-11T09:51:39;22.10;;;17.23;;
63320;SDS011;49449;48.800;9.534;2023-02-11T09:54:14;21.67;;;16.83;;
63320;SDS011;49449;48.800;9.534;2023-02-11T09:56:47;24.23;;;18.17;;
63320;SDS011;49449;48.800;9.534;2023-02-11T09:59:16;26.52;;;18.23;;
63320;SDS011;49449;48.800;9.534;2023-02-11T10:01:46;24.58;;;18.70;;
63320;SDS011;49449;48.800;9.534;2023-02-11T10:04:19;26.92;;;19.33;;
63320;SDS011;49449;48.800;9.534;2023-02-11T10:09:41;25.83;;;18.17;;
63320;SDS011;49449;48.800;9.534;2023-02-11T10:12:21;27.08;;;18.55;;
63320;SDS011;49449;48.800;9.534;2023-02-11T10:15:12;24.52;;;17.88;;
63320;SDS011;49449;48.800;9.534;2023-02-11T10:17:49;24.92;;;17.33;;
63320;SDS011;49449;48.800;9.534;2023-02-11T10:20:33;23.98;;;16.65;;
63320;SDS011;49449;48.800;9.534;2023-02-11T10:23:07;23.90;;;16.92;;
63320;SDS011;49449;48.800;9.534;2023-02-11T10:25:41;32.53;;;19.90;;
63320;SDS011;49449;48.800;9.534;2023-02-11T10:30:41;22.13;;;16.45;;
63320;SDS011;49449;48.800;9.534;2023-02-11T10:33:12;22.30;;;17.05;;
63320;SDS011;49449;48.800;9.534;2023-02-11T10:35:46;24.92;;;17.67;;
63320;SDS011;49449;48.800;9.534;2023-02-11T10:38:14;23.52;;;15.88;;
63320;SDS011;49449;48.800;9.534;2023-02-11T10:40:41;21.50;;;16.42;;
63320;SDS011;49449;48.800;9.534;2023-02-11T10:43:09;19.70;;;14.13;;
63320;SDS011;49449;48.800;9.534;2023-02-11T10:45:42;24.80;;;16.38;;
63320;SDS011;49449;48.800;9.534;2023-02-11T10:51:06;19.88;;;14.50;;
63320;SDS011;49449;48.800;9.534;2023-02-11T10:53:40;18.83;;;13.50;;
63320;SDS011;49449;48.800;9.534;2023-02-11T10:56:09;17.20;;;10.55;;
63320;SDS011;49449;48.800;9.534;2023-02-11T10:58:39;13.10;;;9.30;;
63320;SDS011;49449;48.800;9.534;2023-02-11T11:01:12;14.73;;;9.10;;
63320;SDS011;49449;48.800;9.534;2023-02-11T11:03:50;10.82;;;6.25;;
63320;SDS011;49449;48.800;9.534;2023-02-11T11:06:27;10.65;;;8.27;;
63320;SDS011;49449;48.800;9.534;2023-02-11T11:08:57;13.10;;;9.02;;
63320;SDS011;49449;48.800;9.534;2023-02-11T11:11:25;9.85;;;7.35;;
63320;SDS011;49449;48.800;9.534;2023-02-11T11:13:55;10.95;;;8.10;;
63320;SDS011;49449;48.800;9.534;2023-02-11T11:16:26;10.30;;;7.18;;
63320;SDS011;49449;48.800;9.534;2023-02-11T11:21:42;10.95;;;8.35;;
63320;SDS011;49449;48.800;9.534;2023-02-11T11:24:16;8.15;;;6.68;;
63320;SDS011;49449;48.800;9.534;2023-02-11T11:26:46;8.68;;;6.57;;
63320;SDS011;49449;48.800;9.534;2023-02-11T11:29:17;10.63;;;7.70;;
63320;SDS011;49449;48.800;9.534;2023-02-11T11:31:52;11.63;;;8.13;;
63320;SDS011;49449;48.800;9.534;2023-02-11T11:34:27;9.68;;;7.50;;
63320;SDS011;49449;48.800;9.534;2023-02-11T11:36:57;9.45;;;7.20;;
63320;SDS011;49449;48.800;9.534;2023-02-11T11:39:27;9.15;;;7.45;;
63320;SDS011;49449;48.800;9.534;2023-02-11T11:41:58;10.30;;;6.82;;
63320;SDS011;49449;48.800;9.534;2023-02-11T11:44:28;9.40;;;6.95;;
63320;SDS011;49449;48.800;9.534;2023-02-11T11:50:04;8.95;;;6.45;;
63320;SDS011;49449;48.800;9.534;2023-02-11T11:52:57;8.00;;;5.93;;
63320;SDS011;49449;48.800;9.534;2023-02-11T11:55:30;10.38;;;7.65;;
63320;SDS011;49449;48.800;9.534;2023-02-11T11:58:02;9.35;;;6.32;;
63320;SDS011;49449;48.800;9.534;2023-02-11T12:00:35;10.00;;;7.07;;
63320;SDS011;49449;48.800;9.534;2023-02-11T12:03:25;9.05;;;7.07;;
63320;SDS011;49449;48.800;9.534;2023-02-11T12:06:20;8.18;;;6.13;;
63320;SDS011;49449;48.800;9.534;2023-02-11T12:09:00;8.75;;;6.55;;
63320;SDS011;49449;48.800;9.534;2023-02-11T12:11:38;7.90;;;5.95;;
63320;SDS011;49449;48.800;9.534;2023-02-11T12:14:22;7.28;;;5.30;;
63320;SDS011;49449;48.800;9.534;2023-02-11T12:16:58;7.88;;;6.55;;
63320;SDS011;49449;48.800;9.534;2023-02-11T12:19:43;7.70;;;5.32;;
63320;SDS011;49449;48.800;9.534;2023-02-11T12:22:27;7.47;;;5.80;;
63320;SDS011;49449;48.800;9.534;2023-02-11T12:25:11;7.15;;;5.82;;
63320;SDS011;49449;48.800;9.534;2023-02-11T12:27:53;7.00;;;4.75;;
63320;SDS011;49449;48.800;9.534;2023-02-11T12:30:46;7.28;;;5.28;;
63320;SDS011;49449;48.800;9.534;2023-02-11T12:33:51;9.65;;;6.80;;
63320;SDS011;49449;48.800;9.534;2023-02-11T12:36:39;7.18;;;5.75;;
63320;SDS011;49449;48.800;9.534;2023-02-11T12:39:22;8.80;;;6.35;;
63320;SDS011;49449;48.800;9.534;2023-02-11T12:41:59;9.38;;;7.45;;
63320;SDS011;49449;48.800;9.534;2023-02-11T12:45:08;9.07;;;6.50;;
63320;SDS011;49449;48.800;9.534;2023-02-11T12:47:48;8.73;;;6.93;;
63320;SDS011;49449;48.800;9.534;2023-02-11T12:50:27;11.18;;;7.80;;
63320;SDS011;49449;48.800;9.534;2023-02-11T12:53:06;10.43;;;7.50;;
63320;SDS011;49449;48.800;9.534;2023-02-11T12:55:47;12.30;;;7.35;;
63320;SDS011;49449;48.800;9.534;2023-02-11T12:58:26;9.02;;;7.18;;
63320;SDS011;49449;48.800;9.534;2023-02-11T13:01:11;9.55;;;7.07;;
63320;SDS011;49449;48.800;9.534;2023-02-11T13:03:46;10.85;;;7.72;;
63320;SDS011;49449;48.800;9.534;2023-02-11T13:06:19;9.60;;;7.50;;
63320;SDS011;49449;48.800;9.534;2023-02-11T13:08:53;11.82;;;7.88;;
63320;SDS011;49449;48.800;9.534;2023-02-11T13:11:27;9.98;;;7.40;;
63320;SDS011;49449;48.800;9.534;2023-02-11T13:13:59;13.20;;;8.82;;
63320;SDS011;49449;48.800;9.534;2023-02-11T13:16:32;9.35;;;7.40;;
63320;SDS011;49449;48.800;9.534;2023-02-11T13:19:05;14.18;;;9.10;;
63320;SDS011;49449;48.800;9.534;2023-02-11T13:21:49;12.10;;;8.85;;
63320;SDS011;49449;48.800;9.534;2023-02-11T13:24:35;14.60;;;9.18;;
63320;SDS011;49449;48.800;9.534;2023-02-11T13:27:14;12.95;;;9.00;;
63320;SDS011;49449;48.800;9.534;2023-02-11T13:33:05;10.75;;;8.30;;
63320;SDS011;49449;48.800;9.534;2023-02-11T13:35:45;11.68;;;8.50;;
63320;SDS011;49449;48.800;9.534;2023-02-11T13:38:17;13.13;;;9.35;;
63320;SDS011;49449;48.800;9.534;2023-02-11T13:40:58;12.45;;;9.05;;
63320;SDS011;49449;48.800;9.534;2023-02-11T13:43:30;12.40;;;8.13;;
63320;SDS011;49449;48.800;9.534;2023-02-11T13:46:00;12.18;;;8.32;;
63320;SDS011;49449;48.800;9.534;2023-02-11T13:48:30;12.48;;;10.23;;
63320;SDS011;49449;48.800;9.534;2023-02-11T13:51:01;12.23;;;8.40;;
63320;SDS011;49449;48.800;9.534;2023-02-11T13:53:41;13.38;;;8.98;;
63320;SDS011;49449;48.800;9.534;2023-02-11T13:56:23;13.60;;;9.05;;
63320;SDS011;49449;48.800;9.534;2023-02-11T13:58:55;12.95;;;8.82;;
63320;SDS011;49449;48.800;9.534;2023-02-11T14:01:40;11.45;;;7.70;;
63320;SDS011;49449;48.800;9.534;2023-02-11T14:05:00;12.93;;;8.20;;
63320;SDS011;49449;48.800;9.534;2023-02-11T14:08:10;11.82;;;8.55;;
63320;SDS011;49449;48.800;9.534;2023-02-11T14:10:58;12.35;;;8.18;;
63320;SDS011;49449;48.800;9.534;2023-02-11T14:13:29;14.13;;;9.05;;
63320;SDS011;49449;48.800;9.534;2023-02-11T14:16:05;12.77;;;8.63;;
63320;SDS011;49449;48.800;9.534;2023-02-11T14:18:39;12.40;;;9.27;;
63320;SDS011;49449;48.800;9.534;2023-02-11T14:21:35;11.27;;;9.32;;
63320;SDS011;49449;48.800;9.534;2023-02-11T14:27:14;12.68;;;8.40;;
63320;SDS011;49449;48.800;9.534;2023-02-11T14:29:52;12.00;;;8.07;;
63320;SDS011;49449;48.800;9.534;2023-02-11T14:32:37;9.98;;;7.57;;
63320;SDS011;49449;48.800;9.534;2023-02-11T14:35:19;12.63;;;8.25;;
63320;SDS011;49449;48.800;9.534;2023-02-11T14:37:57;14.23;;;10.43;;
63320;SDS011;49449;48.800;9.534;2023-02-11T14:40:32;13.10;;;10.48;;
63320;SDS011;49449;48.800;9.534;2023-02-11T14:43:11;12.95;;;9.32;;
63320;SDS011;49449;48.800;9.534;2023-02-11T14:45:44;14.00;;;9.68;;
63320;SDS011;49449;48.800;9.534;2023-02-11T14:48:16;14.70;;;10.18;;
63320;SDS011;49449;48.800;9.534;2023-02-11T14:50:47;14.52;;;10.18;;
63320;SDS011;49449;48.800;9.534;2023-02-11T14:53:18;13.95;;;9.10;;
63320;SDS011;49449;48.800;9.534;2023-02-11T14:55:50;14.15;;;9.93;;
63320;SDS011;49449;48.800;9.534;2023-02-11T14:58:20;12.20;;;9.43;;
63320;SDS011;49449;48.800;9.534;2023-02-11T15:00:52;14.23;;;9.57;;
63320;SDS011;49449;48.800;9.534;2023-02-11T15:03:25;12.10;;;8.40;;
63320;SDS011;49449;48.800;9.534;2023-02-11T15:05:59;12.57;;;9.05;;
63320;SDS011;49449;48.800;9.534;2023-02-11T15:08:30;15.02;;;9.90;;
63320;SDS011;49449;48.800;9.534;2023-02-11T15:11:02;14.82;;;10.30;;
63320;SDS011;49449;48.800;9.534;2023-02-11T15:13:34;14.88;;;10.27;;
63320;SDS011;49449;48.800;9.534;2023-02-11T15:16:05;15.55;;;11.50;;
63320;SDS011;49449;48.800;9.534;2023-02-11T15:18:37;13.07;;;8.95;;
63320;SDS011;49449;48.800;9.534;2023-02-11T15:21:07;14.63;;;9.93;;
63320;SDS011;49449;48.800;9.534;2023-02-11T15:23:36;15.70;;;9.27;;
63320;SDS011;49449;48.800;9.534;2023-02-11T15:26:10;14.23;;;9.98;;
63320;SDS011;49449;48.800;9.534;2023-02-11T15:28:43;12.82;;;9.93;;